createdAt,value
2023-03-19T00:00:24.525Z,3.75
2023-03-19T00:02:51.150Z,5.00
2023-03-19T00:05:18.269Z,4.22
2023-03-19T00:07:46.089Z,4.47
2023-03-19T00:10:12.627Z,4.65
2023-03-19T00:12:39.432Z,5.32
2023-03-19T00:15:06.980Z,4.60
2023-03-19T00:17:33.520Z,5.70
2023-03-19T00:19:59.983Z,4.45
2023-03-19T00:22:26.470Z,6.68
2023-03-19T00:24:54.271Z,4.95
2023-03-19T00:27:20.765Z,5.05
2023-03-19T00:29:47.214Z,5.72
2023-03-19T00:32:13.714Z,4.40
2023-03-19T00:34:40.303Z,5.57
2023-03-19T00:37:06.812Z,3.75
2023-03-19T00:39:33.313Z,4.57
2023-03-19T00:42:01.541Z,4.85
2023-03-19T00:44:28.001Z,4.53
2023-03-19T00:46:54.476Z,8.45
2023-03-19T00:49:21.178Z,4.47
2023-03-19T00:51:47.803Z,4.97
2023-03-19T00:54:14.360Z,6.93
2023-03-19T00:56:40.865Z,5.68
2023-03-19T00:59:08.781Z,3.80
2023-03-19T01:01:35.392Z,5.47
2023-03-19T01:04:02.007Z,7.00
2023-03-19T01:06:28.576Z,4.50
2023-03-19T01:08:55.075Z,4.28
2023-03-19T01:11:21.565Z,5.15
2023-03-19T01:13:48.216Z,4.25
2023-03-19T01:16:16.016Z,6.53
2023-03-19T01:18:42.569Z,5.38
2023-03-19T01:21:09.053Z,4.80
2023-03-19T01:23:35.560Z,4.15
2023-03-19T01:26:02.045Z,3.60
2023-03-19T01:28:28.729Z,4.50
2023-03-19T01:30:59.022Z,3.50
2023-03-19T01:33:26.911Z,4.82
2023-03-19T01:35:53.497Z,4.47
2023-03-19T01:38:20.020Z,3.97
2023-03-19T01:40:47.627Z,3.08
2023-03-19T01:43:17.426Z,5.07
2023-03-19T01:45:45.353Z,5.55
2023-03-19T01:48:19.688Z,5.20
2023-03-19T01:50:49.279Z,3.50
2023-03-19T01:53:17.846Z,3.85
2023-03-19T01:55:45.821Z,5.63
2023-03-19T01:58:12.378Z,5.43
2023-03-19T02:00:39.031Z,4.28
2023-03-19T02:03:06.400Z,5.95
2023-03-19T02:05:34.459Z,4.75
2023-03-19T02:08:06.038Z,5.82
2023-03-19T02:10:33.757Z,4.70
2023-03-19T02:13:00.499Z,3.83
2023-03-19T02:15:27.034Z,4.25
2023-03-19T02:17:53.710Z,6.32
2023-03-19T02:20:26.513Z,5.38
2023-03-19T02:23:05.396Z,4.60
2023-03-19T02:25:39.456Z,3.50
2023-03-19T02:28:08.203Z,3.65
2023-03-19T02:30:35.074Z,5.22
2023-03-19T02:33:01.847Z,6.22
2023-03-19T02:35:31.707Z,6.43
2023-03-19T02:37:58.261Z,3.47
2023-03-19T02:40:29.315Z,4.05
2023-03-19T02:42:55.799Z,6.13
2023-03-19T02:45:28.813Z,4.95
2023-03-19T02:47:55.693Z,4.25
2023-03-19T02:50:22.262Z,5.30
2023-03-19T02:52:48.934Z,5.55
2023-03-19T02:55:15.504Z,4.63
2023-03-19T02:57:41.999Z,4.47
2023-03-19T03:00:09.951Z,4.93
2023-03-19T03:02:38.242Z,3.47
2023-03-19T03:05:05.344Z,6.32
2023-03-19T03:07:32.475Z,6.63
2023-03-19T03:09:59.089Z,4.53
2023-03-19T03:12:25.609Z,5.13
2023-03-19T03:14:52.089Z,4.97
2023-03-19T03:17:18.639Z,8.05
2023-03-19T03:19:46.519Z,5.88
2023-03-19T03:22:13.021Z,4.68
2023-03-19T03:24:39.524Z,8.60
2023-03-19T03:27:06.133Z,5.07
2023-03-19T03:29:32.598Z,4.30
2023-03-19T03:31:59.117Z,4.35
2023-03-19T03:34:25.700Z,5.97
2023-03-19T03:36:53.676Z,4.25
2023-03-19T03:39:20.187Z,5.85
2023-03-19T03:41:46.713Z,3.05
2023-03-19T03:44:13.247Z,4.82
2023-03-19T03:46:39.853Z,6.13
2023-03-19T03:49:06.362Z,4.70
2023-03-19T03:51:32.826Z,3.92
2023-03-19T03:54:00.781Z,5.20
2023-03-19T03:56:27.255Z,6.75
2023-03-19T03:58:53.818Z,3.78
2023-03-19T04:01:20.468Z,4.10
2023-03-19T04:03:47.008Z,4.97
2023-03-19T04:06:15.696Z,5.82
2023-03-19T04:08:42.235Z,5.97
2023-03-19T04:11:10.620Z,4.10
2023-03-19T04:13:37.190Z,7.78
2023-03-19T04:16:04.020Z,5.55
2023-03-19T04:18:30.580Z,6.45
2023-03-19T04:20:57.227Z,5.13
2023-03-19T04:23:23.711Z,7.28
2023-03-19T04:25:50.333Z,7.45
2023-03-19T04:28:18.250Z,5.32
2023-03-19T04:30:44.732Z,7.13
2023-03-19T04:33:11.434Z,6.10
2023-03-19T04:35:37.981Z,6.15
2023-03-19T04:38:04.467Z,6.53
2023-03-19T04:40:31.072Z,5.53
2023-03-19T04:42:57.579Z,6.43
2023-03-19T04:45:25.477Z,6.05
2023-03-19T04:47:51.956Z,5.65
2023-03-19T04:50:18.611Z,8.07
2023-03-19T04:52:45.102Z,5.78
2023-03-19T04:55:11.620Z,7.43
2023-03-19T04:57:38.113Z,5.88
2023-03-19T05:00:05.298Z,9.23
2023-03-19T05:02:33.149Z,6.38
2023-03-19T05:04:59.718Z,7.75
2023-03-19T05:07:26.219Z,6.20
2023-03-19T05:09:52.762Z,6.80
2023-03-19T05:12:19.233Z,8.05
2023-03-19T05:14:45.704Z,10.65
2023-03-19T05:17:12.230Z,7.75
2023-03-19T05:19:40.063Z,8.93
2023-03-19T05:22:06.548Z,7.35
2023-03-19T05:24:33.007Z,7.13
2023-03-19T05:26:59.473Z,10.00
2023-03-19T05:29:26.019Z,7.88
2023-03-19T05:31:52.565Z,9.73
2023-03-19T05:34:19.086Z,8.70
2023-03-19T05:36:46.930Z,9.20
2023-03-19T05:39:13.417Z,10.55
2023-03-19T05:41:39.897Z,8.75
2023-03-19T05:44:06.454Z,8.07
2023-03-19T05:46:32.973Z,7.25
2023-03-19T05:48:59.468Z,12.45
2023-03-19T05:51:25.983Z,6.97
2023-03-19T05:53:53.809Z,9.65
2023-03-19T05:56:20.467Z,9.00
2023-03-19T05:58:47.024Z,9.05
2023-03-19T06:01:13.647Z,7.35
2023-03-19T06:03:40.160Z,8.85
2023-03-19T06:06:07.079Z,8.18
2023-03-19T06:08:33.663Z,8.48
2023-03-19T06:11:01.499Z,9.75
2023-03-19T06:13:27.968Z,8.95
2023-03-19T06:15:54.449Z,9.32
2023-03-19T06:18:20.980Z,8.52
2023-03-19T06:20:47.845Z,7.68
2023-03-19T06:23:16.261Z,9.63
2023-03-19T06:25:43.028Z,9.68
2023-03-19T06:28:10.852Z,8.38
2023-03-19T06:30:37.440Z,11.38
2023-03-19T06:33:04.151Z,9.93
2023-03-19T06:35:30.788Z,9.93
2023-03-19T06:37:57.330Z,9.57
2023-03-19T06:40:23.805Z,10.40
2023-03-19T06:42:50.340Z,10.80
2023-03-19T06:45:18.154Z,9.73
2023-03-19T06:47:45.636Z,10.00
2023-03-19T06:50:12.349Z,10.60
2023-03-19T06:52:39.041Z,9.95
2023-03-19T06:55:06.319Z,12.23
2023-03-19T06:57:32.788Z,10.75
2023-03-19T06:59:59.279Z,10.90
2023-03-19T07:02:27.278Z,9.95
2023-03-19T07:04:53.787Z,12.02
2023-03-19T07:07:20.274Z,11.48
2023-03-19T07:09:46.971Z,13.18
2023-03-19T07:12:13.649Z,10.52
2023-03-19T07:14:40.090Z,10.05
2023-03-19T07:17:09.071Z,10.55
2023-03-19T07:19:38.036Z,10.27
2023-03-19T07:22:04.678Z,11.90
2023-03-19T07:24:31.153Z,13.07
2023-03-19T07:26:57.626Z,9.77
2023-03-19T07:29:24.114Z,12.20
2023-03-19T07:31:50.590Z,9.20
2023-03-19T07:34:17.155Z,12.45
2023-03-19T07:36:45.061Z,11.82
2023-03-19T07:39:11.544Z,12.45
2023-03-19T07:41:37.998Z,12.77
2023-03-19T07:44:04.567Z,12.10
2023-03-19T07:46:31.062Z,15.82
2023-03-19T07:48:57.584Z,12.55
2023-03-19T07:51:24.072Z,11.80
2023-03-19T07:53:51.881Z,11.55
2023-03-19T07:56:18.353Z,13.48
2023-03-19T07:58:44.878Z,12.38
2023-03-19T08:01:11.359Z,11.68
2023-03-19T08:03:38.166Z,13.10
2023-03-19T08:06:05.254Z,14.00
2023-03-19T08:08:31.813Z,11.38
2023-03-19T08:10:59.622Z,12.63
2023-03-19T08:13:26.197Z,13.02
2023-03-19T08:15:52.723Z,12.25
2023-03-19T08:18:19.791Z,11.48
2023-03-19T08:20:46.728Z,14.32
2023-03-19T08:23:13.748Z,16.98
2023-03-19T08:25:40.513Z,11.13
2023-03-19T08:28:08.585Z,13.00
2023-03-19T08:30:35.886Z,10.27
2023-03-19T08:33:02.965Z,10.10
2023-03-19T08:35:29.874Z,13.18
2023-03-19T08:37:56.824Z,11.82
2023-03-19T08:40:23.650Z,13.80
2023-03-19T08:42:50.208Z,9.32
2023-03-19T08:45:18.864Z,13.63
2023-03-19T08:47:45.713Z,10.23
2023-03-19T08:50:12.276Z,8.15
2023-03-19T08:52:39.254Z,9.32
2023-03-19T08:55:06.411Z,9.75
2023-03-19T08:57:33.097Z,9.98
2023-03-19T08:59:59.573Z,9.88
2023-03-19T09:02:27.587Z,14.40
2023-03-19T09:04:54.092Z,8.23
2023-03-19T09:07:20.828Z,8.52
2023-03-19T09:09:47.298Z,12.05
2023-03-19T09:12:15.680Z,8.98
2023-03-19T09:14:42.998Z,9.32
2023-03-19T09:17:10.810Z,7.28
2023-03-19T09:19:38.953Z,7.50
2023-03-19T09:22:05.613Z,7.90
2023-03-19T09:24:32.121Z,7.22
2023-03-19T09:26:58.625Z,7.88
2023-03-19T09:29:25.130Z,11.63
2023-03-19T09:31:51.617Z,11.57
2023-03-19T09:34:18.110Z,6.45
2023-03-19T09:36:45.894Z,7.82
2023-03-19T09:39:12.435Z,14.35
2023-03-19T09:41:54.183Z,10.52
2023-03-19T09:44:27.726Z,13.10
2023-03-19T09:49:25.931Z,9.85
2023-03-19T09:51:56.501Z,8.02
2023-03-19T09:54:28.019Z,6.25
2023-03-19T09:56:55.563Z,5.70
2023-03-19T09:59:24.872Z,9.50
2023-03-19T10:01:58.884Z,5.70
2023-03-19T10:04:41.980Z,10.02
2023-03-19T10:07:24.302Z,9.35
2023-03-19T10:10:03.128Z,6.28
2023-03-19T10:12:45.021Z,6.20
2023-03-19T10:15:18.329Z,8.07
2023-03-19T10:17:54.023Z,12.57
2023-03-19T10:20:30.520Z,8.07
2023-03-19T10:23:08.710Z,9.23
2023-03-19T10:25:41.411Z,5.63
2023-03-19T10:28:14.839Z,9.77
2023-03-19T10:30:41.824Z,9.88
2023-03-19T10:33:20.978Z,9.07
2023-03-19T10:35:50.889Z,7.75
2023-03-19T10:38:20.548Z,12.80
2023-03-19T10:41:01.596Z,7.47
2023-03-19T10:43:29.871Z,8.73
2023-03-19T10:45:57.225Z,5.68
2023-03-19T10:48:27.671Z,6.57
2023-03-19T10:50:58.786Z,7.93
2023-03-19T10:53:32.753Z,5.80
2023-03-19T10:56:03.286Z,5.97
2023-03-19T10:58:32.045Z,6.53
2023-03-19T11:01:03.674Z,6.10
2023-03-19T11:03:32.313Z,5.68
2023-03-19T11:06:15.914Z,8.20
2023-03-19T11:08:51.971Z,6.55
2023-03-19T11:11:26.666Z,7.72
2023-03-19T11:13:53.310Z,6.20
2023-03-19T11:16:19.903Z,7.57
2023-03-19T11:18:48.385Z,5.38
2023-03-19T11:21:23.393Z,5.25
2023-03-19T11:23:58.582Z,6.97
2023-03-19T11:26:25.090Z,7.53
2023-03-19T11:28:52.044Z,4.45
2023-03-19T11:31:24.045Z,6.88
2023-03-19T11:34:02.816Z,5.97
2023-03-19T11:36:33.535Z,7.18
2023-03-19T11:39:17.709Z,5.45
2023-03-19T11:42:02.134Z,3.38
2023-03-19T11:44:32.680Z,4.53
2023-03-19T11:47:17.823Z,5.45
2023-03-19T11:50:14.516Z,10.35
2023-03-19T11:52:53.229Z,5.07
2023-03-19T11:55:25.988Z,7.50
2023-03-19T11:58:03.604Z,6.82
2023-03-19T12:00:35.951Z,6.18
2023-03-19T12:03:32.340Z,6.10
2023-03-19T12:06:00.956Z,5.95
2023-03-19T12:08:37.754Z,6.35
2023-03-19T12:11:19.205Z,5.75
2023-03-19T12:14:01.464Z,9.25
2023-03-19T12:16:44.124Z,8.65
2023-03-19T12:19:33.401Z,11.82
2023-03-19T12:22:12.173Z,7.20
2023-03-19T12:24:54.731Z,6.82
2023-03-19T12:27:31.191Z,12.05
2023-03-19T12:30:02.139Z,7.53
2023-03-19T12:32:48.833Z,6.10
2023-03-19T12:35:18.628Z,4.68
2023-03-19T12:37:58.357Z,6.82
2023-03-19T12:40:29.442Z,4.40
2023-03-19T12:42:59.584Z,4.82
2023-03-19T12:45:31.120Z,7.45
2023-03-19T12:48:05.866Z,4.72
2023-03-19T12:50:36.417Z,8.38
2023-03-19T12:53:09.173Z,5.68
2023-03-19T12:55:40.275Z,8.50
2023-03-19T12:58:18.347Z,5.97
2023-03-19T13:00:52.440Z,8.18
2023-03-19T13:03:24.911Z,5.13
2023-03-19T13:05:58.234Z,4.15
2023-03-19T13:08:31.817Z,5.30
2023-03-19T13:13:38.474Z,4.38
2023-03-19T13:16:13.914Z,7.70
2023-03-19T13:18:49.592Z,9.55
2023-03-19T13:21:24.007Z,9.20
2023-03-19T13:24:07.038Z,5.28
2023-03-19T13:26:34.428Z,4.80
2023-03-19T13:29:08.955Z,7.15
2023-03-19T13:31:37.625Z,4.93
2023-03-19T13:34:06.235Z,4.97
2023-03-19T13:36:37.519Z,5.53
2023-03-19T13:39:11.376Z,8.25
2023-03-19T13:42:06.310Z,5.78
2023-03-19T13:44:39.099Z,4.57
2023-03-19T13:47:39.565Z,9.10
2023-03-19T13:50:28.533Z,9.25
2023-03-19T13:53:19.455Z,9.18
2023-03-19T13:55:51.816Z,8.82
2023-03-19T13:58:21.433Z,5.10
2023-03-19T14:00:59.842Z,8.07
2023-03-19T14:03:29.890Z,5.32
2023-03-19T14:05:57.828Z,6.05
2023-03-19T14:08:26.888Z,7.82
2023-03-19T14:10:55.860Z,6.63
2023-03-19T14:13:30.929Z,9.25
2023-03-19T14:16:06.953Z,6.72
2023-03-19T14:18:38.240Z,10.05
2023-03-19T14:21:08.803Z,8.43
2023-03-19T14:23:44.096Z,8.10
2023-03-19T14:26:16.983Z,9.75
2023-03-19T14:28:51.972Z,9.30
2023-03-19T14:31:25.927Z,9.27
2023-03-19T14:33:59.452Z,7.93
2023-03-19T14:38:56.837Z,11.95
2023-03-19T14:41:27.266Z,8.10
2023-03-19T14:44:12.438Z,11.93
2023-03-19T14:46:53.467Z,10.32
2023-03-19T14:49:48.915Z,11.15
2023-03-19T14:52:19.061Z,14.48
2023-03-19T14:54:51.028Z,14.32
2023-03-19T14:57:19.295Z,9.20
2023-03-19T14:59:46.166Z,11.55
2023-03-19T15:02:27.463Z,11.75
2023-03-19T15:04:55.140Z,12.65
2023-03-19T15:07:28.599Z,9.18
2023-03-19T15:09:55.827Z,8.30
2023-03-19T15:12:44.614Z,7.22
2023-03-19T15:15:30.494Z,7.28
2023-03-19T15:18:04.224Z,5.40
2023-03-19T15:20:37.397Z,12.15
2023-03-19T15:23:13.528Z,8.20
2023-03-19T15:25:47.471Z,10.82
2023-03-19T15:28:16.020Z,11.50
2023-03-19T15:30:54.874Z,11.30
2023-03-19T15:33:40.047Z,11.48
2023-03-19T15:36:09.998Z,9.07
2023-03-19T15:38:39.802Z,7.40
2023-03-19T15:41:08.432Z,7.70
2023-03-19T15:43:38.386Z,7.63
2023-03-19T15:46:07.237Z,9.75
2023-03-19T15:48:39.215Z,12.68
2023-03-19T15:51:07.362Z,12.20
2023-03-19T15:53:36.132Z,11.00
2023-03-19T15:56:04.687Z,12.77
2023-03-19T15:58:37.444Z,13.85
2023-03-19T16:01:07.623Z,16.73
2023-03-19T16:03:38.024Z,17.67
2023-03-19T16:06:07.477Z,18.25
2023-03-19T16:08:34.017Z,21.73
2023-03-19T16:11:14.824Z,19.85
2023-03-19T16:13:46.210Z,16.02
2023-03-19T16:16:19.185Z,17.52
2023-03-19T16:18:50.142Z,14.95
2023-03-19T16:21:19.659Z,17.52
2023-03-19T16:23:52.055Z,13.32
2023-03-19T16:26:24.921Z,18.27
2023-03-19T16:29:17.657Z,15.48
2023-03-19T16:31:46.134Z,16.33
2023-03-19T16:34:24.738Z,15.73
2023-03-19T16:36:51.642Z,18.45
2023-03-19T16:39:25.992Z,17.33
2023-03-19T16:42:14.676Z,17.40
2023-03-19T16:44:43.184Z,22.60
2023-03-19T16:47:10.893Z,22.27
2023-03-19T16:49:38.718Z,22.27
2023-03-19T16:52:06.317Z,24.73
2023-03-19T16:54:32.871Z,24.92
2023-03-19T16:57:00.124Z,23.83
2023-03-19T16:59:30.917Z,27.77
2023-03-19T17:01:58.049Z,28.63
2023-03-19T17:04:24.854Z,28.50
2023-03-19T17:07:00.529Z,28.05
2023-03-19T17:09:27.809Z,25.38
2023-03-19T17:11:58.021Z,29.40
2023-03-19T17:14:25.779Z,25.55
2023-03-19T17:16:54.484Z,21.52
2023-03-19T17:19:26.289Z,26.58
2023-03-19T17:21:58.825Z,27.40
2023-03-19T17:24:32.387Z,26.52
2023-03-19T17:29:36.824Z,20.67
2023-03-19T17:32:18.211Z,20.63
2023-03-19T17:34:44.800Z,25.25
2023-03-19T17:37:13.759Z,23.08
2023-03-19T17:39:40.305Z,19.35
2023-03-19T17:42:17.199Z,21.15
2023-03-19T17:44:43.732Z,22.65
2023-03-19T17:47:10.556Z,21.00
2023-03-19T17:49:37.965Z,19.25
2023-03-19T17:52:13.853Z,20.55
2023-03-19T17:54:40.345Z,22.95
2023-03-19T17:57:10.879Z,16.13
2023-03-19T17:59:37.350Z,16.23
2023-03-19T18:02:25.046Z,14.52
2023-03-19T18:04:52.700Z,14.65
2023-03-19T18:07:20.625Z,15.07
2023-03-19T18:09:48.205Z,15.40
2023-03-19T18:12:14.700Z,17.90
2023-03-19T18:14:41.268Z,14.85
2023-03-19T18:17:14.192Z,17.83
2023-03-19T18:19:40.828Z,14.32
2023-03-19T18:22:12.837Z,16.50
2023-03-19T18:24:40.701Z,16.15
2023-03-19T18:27:07.222Z,19.15
2023-03-19T18:29:33.676Z,17.48
2023-03-19T18:32:04.710Z,21.13
2023-03-19T18:34:31.621Z,16.92
2023-03-19T18:36:59.131Z,15.55
2023-03-19T18:39:25.633Z,15.88
2023-03-19T18:41:53.443Z,20.83
2023-03-19T18:44:19.945Z,18.75
2023-03-19T18:46:46.664Z,17.52
2023-03-19T18:49:21.591Z,13.45
2023-03-19T18:52:01.458Z,13.73
2023-03-19T18:54:28.464Z,14.45
2023-03-19T18:56:57.544Z,13.90
2023-03-19T18:59:26.961Z,15.48
2023-03-19T19:01:58.304Z,13.15
2023-03-19T19:04:24.968Z,11.82
2023-03-19T19:06:51.890Z,9.40
2023-03-19T19:09:18.366Z,10.00
2023-03-19T19:11:47.569Z,11.40
2023-03-19T19:14:20.004Z,14.80
2023-03-19T19:16:47.591Z,9.00
2023-03-19T19:19:16.796Z,8.40
2023-03-19T19:21:43.474Z,8.65
2023-03-19T19:24:09.993Z,7.95
2023-03-19T19:26:36.605Z,9.07
2023-03-19T19:29:04.289Z,9.30
2023-03-19T19:31:33.780Z,9.60
2023-03-19T19:34:00.288Z,7.75
2023-03-19T19:36:27.579Z,8.20
2023-03-19T19:38:54.440Z,6.78
2023-03-19T19:41:24.144Z,6.10
2023-03-19T19:43:52.332Z,8.30
2023-03-19T19:46:20.678Z,7.25
2023-03-19T19:48:49.060Z,7.57
2023-03-19T19:51:19.136Z,8.02
2023-03-19T19:53:45.595Z,9.20
2023-03-19T19:56:15.465Z,8.13
2023-03-19T19:58:43.324Z,7.78
2023-03-19T20:01:15.056Z,8.98
2023-03-19T20:03:42.190Z,7.97
2023-03-19T20:06:12.909Z,9.13
2023-03-19T20:08:40.473Z,7.45
2023-03-19T20:11:15.849Z,10.25
2023-03-19T20:13:43.530Z,7.80
2023-03-19T20:16:11.702Z,6.43
2023-03-19T20:18:38.719Z,7.18
2023-03-19T20:21:05.540Z,7.97
2023-03-19T20:23:33.385Z,9.15
2023-03-19T20:26:00.962Z,9.00
2023-03-19T20:28:30.110Z,6.25
2023-03-19T20:30:56.665Z,6.88
2023-03-19T20:33:23.178Z,7.85
2023-03-19T20:35:50.304Z,6.43
2023-03-19T20:38:17.088Z,6.93
2023-03-19T20:40:47.299Z,7.63
2023-03-19T20:43:23.062Z,7.95
2023-03-19T20:45:49.985Z,7.65
2023-03-19T20:48:16.532Z,7.78
2023-03-19T20:50:43.881Z,6.35
2023-03-19T20:53:10.658Z,12.48
2023-03-19T20:55:39.007Z,8.60
2023-03-19T20:58:14.521Z,6.00
2023-03-19T21:00:41.074Z,9.20
2023-03-19T21:03:16.090Z,8.18
2023-03-19T21:05:42.708Z,7.22
2023-03-19T21:08:14.393Z,8.05
2023-03-19T21:10:43.241Z,9.77
2023-03-19T21:13:13.618Z,7.65
2023-03-19T21:15:40.290Z,10.27
2023-03-19T21:18:06.771Z,12.82
2023-03-19T21:20:33.620Z,9.02
2023-03-19T21:23:10.434Z,10.68
2023-03-19T21:25:37.183Z,9.73
2023-03-19T21:28:11.319Z,10.05
2023-03-19T21:30:42.479Z,8.82
2023-03-19T21:33:20.474Z,9.30
2023-03-19T21:35:46.996Z,8.77
2023-03-19T21:38:13.474Z,9.30
2023-03-19T21:40:40.030Z,11.90
2023-03-19T21:43:06.645Z,12.77
2023-03-19T21:45:35.171Z,8.02
2023-03-19T21:48:23.082Z,6.95
2023-03-19T21:50:50.121Z,7.90
2023-03-19T21:53:17.057Z,8.00
2023-03-19T21:55:43.612Z,6.88
2023-03-19T21:58:11.955Z,9.32
2023-03-19T22:04:05.400Z,10.85
2023-03-19T22:06:31.967Z,9.68
2023-03-19T22:08:58.859Z,9.70
2023-03-19T22:11:27.445Z,10.77
2023-03-19T22:13:54.383Z,7.32
2023-03-19T22:16:23.519Z,7.90
2023-03-19T22:18:51.206Z,9.25
2023-03-19T22:21:22.004Z,7.47
2023-03-19T22:23:48.678Z,10.85
2023-03-19T22:26:27.373Z,9.75
2023-03-19T22:28:54.457Z,9.88
2023-03-19T22:31:21.121Z,7.43
2023-03-19T22:33:47.781Z,8.32
2023-03-19T22:36:14.975Z,10.90
2023-03-19T22:38:43.103Z,9.32
2023-03-19T22:41:15.392Z,10.63
2023-03-19T22:43:42.386Z,8.82
2023-03-19T22:46:11.811Z,8.95
2023-03-19T22:48:39.128Z,11.52
2023-03-19T22:51:06.047Z,8.68
2023-03-19T22:53:34.425Z,8.70
2023-03-19T22:56:03.832Z,8.15
2023-03-19T22:58:30.660Z,7.75
2023-03-19T23:00:57.339Z,7.95
2023-03-19T23:03:26.047Z,9.98
2023-03-19T23:05:54.302Z,9.52
2023-03-19T23:08:20.819Z,10.07
2023-03-19T23:10:47.668Z,9.63
2023-03-19T23:13:15.532Z,8.93
2023-03-19T23:15:42.750Z,11.75
2023-03-19T23:18:17.276Z,9.32
2023-03-19T23:20:43.887Z,10.18
2023-03-19T23:23:12.738Z,7.57
2023-03-19T23:25:39.652Z,9.35
2023-03-19T23:28:06.157Z,9.38
2023-03-19T23:30:34.048Z,9.63
2023-03-19T23:33:02.222Z,7.63
2023-03-19T23:35:30.495Z,9.93
2023-03-19T23:37:57.749Z,7.93
2023-03-19T23:40:26.759Z,8.93
2023-03-19T23:42:55.020Z,9.98
2023-03-19T23:45:30.336Z,8.30
2023-03-19T23:48:00.059Z,7.78
2023-03-19T23:50:26.685Z,11.30
2023-03-19T23:52:53.519Z,9.88
2023-03-19T23:55:20.281Z,8.25
2023-03-19T23:57:47.627Z,7.15
